createdAt,value
2023-03-03T00:01:15.517Z,41.35
2023-03-03T00:03:42.732Z,39.35
2023-03-03T00:06:12.480Z,48.15
2023-03-03T00:08:40.194Z,38.42
2023-03-03T00:11:07.996Z,32.83
2023-03-03T00:13:52.720Z,36.58
2023-03-03T00:16:29.835Z,28.58
2023-03-03T00:18:57.180Z,36.28
2023-03-03T00:21:32.950Z,32.03
2023-03-03T00:24:18.293Z,30.98
2023-03-03T00:26:52.979Z,29.60
2023-03-03T00:29:51.240Z,32.70
2023-03-03T00:32:27.529Z,33.70
2023-03-03T00:34:56.074Z,33.63
2023-03-03T00:37:31.392Z,23.92
2023-03-03T00:40:22.688Z,27.55
2023-03-03T00:42:55.271Z,25.10
2023-03-03T00:45:49.330Z,25.85
2023-03-03T00:48:28.292Z,26.73
2023-03-03T00:50:57.051Z,25.83
2023-03-03T00:53:25.621Z,20.92
2023-03-03T00:55:53.276Z,23.10
2023-03-03T00:58:21.906Z,20.17
2023-03-03T01:00:51.406Z,15.80
2023-03-03T01:03:24.716Z,17.48
2023-03-03T01:05:53.007Z,13.55
2023-03-03T01:08:22.314Z,13.02
2023-03-03T01:10:53.051Z,11.75
2023-03-03T01:13:23.768Z,14.73
2023-03-03T01:15:51.399Z,13.18
2023-03-03T01:18:18.715Z,14.05
2023-03-03T01:20:45.940Z,14.48
2023-03-03T01:23:12.901Z,11.95
2023-03-03T01:25:40.236Z,13.68
2023-03-03T01:28:07.415Z,15.13
2023-03-03T01:30:34.360Z,12.05
2023-03-03T01:33:01.244Z,14.48
2023-03-03T01:35:30.080Z,13.93
2023-03-03T01:37:57.515Z,16.30
2023-03-03T01:40:27.339Z,11.60
2023-03-03T01:42:54.678Z,13.88
2023-03-03T01:45:27.636Z,18.65
2023-03-03T01:48:07.008Z,14.90
2023-03-03T01:51:06.124Z,17.25
2023-03-03T01:53:45.271Z,15.13
2023-03-03T01:56:12.391Z,17.27
2023-03-03T01:58:45.897Z,18.65
2023-03-03T02:01:16.252Z,16.98
2023-03-03T02:03:44.076Z,18.13
2023-03-03T02:06:14.942Z,16.42
2023-03-03T02:09:10.983Z,18.73
2023-03-03T02:11:39.328Z,13.57
2023-03-03T02:14:06.179Z,19.33
2023-03-03T02:16:33.232Z,18.88
2023-03-03T02:19:00.095Z,15.27
2023-03-03T02:21:27.857Z,20.63
2023-03-03T02:24:03.781Z,21.40
2023-03-03T02:26:35.657Z,18.90
2023-03-03T02:29:06.558Z,22.35
2023-03-03T02:31:34.288Z,19.58
2023-03-03T02:34:01.301Z,15.32
2023-03-03T02:36:30.929Z,22.02
2023-03-03T02:39:12.381Z,22.95
2023-03-03T02:42:09.140Z,24.77
2023-03-03T02:44:41.770Z,23.35
2023-03-03T02:47:08.876Z,21.13
2023-03-03T02:49:36.844Z,23.77
2023-03-03T02:52:07.096Z,22.92
2023-03-03T02:54:34.536Z,22.53
2023-03-03T02:57:03.713Z,21.98
2023-03-03T02:59:30.741Z,26.75
2023-03-03T03:02:03.612Z,24.88
2023-03-03T03:04:30.835Z,25.65
2023-03-03T03:06:58.482Z,36.30
2023-03-03T03:09:28.678Z,25.42
2023-03-03T03:11:55.994Z,23.25
2023-03-03T03:14:25.856Z,27.20
2023-03-03T03:16:54.402Z,28.98
2023-03-03T03:19:21.290Z,23.52
2023-03-03T03:21:48.462Z,28.13
2023-03-03T03:24:16.415Z,24.38
2023-03-03T03:29:15.404Z,30.98
2023-03-03T03:31:43.860Z,24.45
2023-03-03T03:34:11.067Z,33.38
2023-03-03T03:36:39.982Z,29.13
2023-03-03T03:39:07.768Z,39.38
2023-03-03T03:41:37.683Z,26.70
2023-03-03T03:44:04.836Z,33.20
2023-03-03T03:46:31.733Z,28.83
2023-03-03T03:48:58.897Z,38.05
2023-03-03T03:51:26.601Z,38.40
2023-03-03T03:53:53.613Z,41.85
2023-03-03T03:56:20.528Z,42.65
2023-03-03T03:58:50.802Z,46.38
2023-03-03T04:01:17.961Z,43.45
2023-03-03T04:03:49.273Z,41.72
2023-03-03T04:06:19.697Z,34.58
2023-03-03T04:08:47.399Z,35.92
2023-03-03T04:11:15.500Z,39.58
2023-03-03T04:13:42.579Z,47.70
2023-03-03T04:16:10.125Z,52.30
2023-03-03T04:18:39.950Z,48.88
2023-03-03T04:21:06.821Z,46.92
2023-03-03T04:23:34.090Z,41.45
2023-03-03T04:26:02.185Z,45.92
2023-03-03T04:28:29.388Z,51.95
2023-03-03T04:30:56.884Z,45.13
2023-03-03T04:33:25.301Z,49.45
2023-03-03T04:35:52.526Z,54.03
2023-03-03T04:38:19.625Z,57.95
2023-03-03T04:40:47.601Z,42.88
2023-03-03T04:43:17.305Z,55.75
2023-03-03T04:45:44.287Z,50.63
2023-03-03T04:48:11.907Z,59.80
2023-03-03T04:50:39.010Z,59.58
2023-03-03T04:53:06.031Z,55.38
2023-03-03T04:55:33.484Z,52.97
2023-03-03T04:58:00.545Z,41.88
2023-03-03T05:00:27.731Z,40.75
2023-03-03T05:02:54.574Z,35.42
2023-03-03T05:05:21.530Z,36.75
2023-03-03T05:07:48.364Z,35.88
2023-03-03T05:10:15.316Z,37.10
2023-03-03T05:12:42.230Z,41.05
2023-03-03T05:15:09.404Z,42.60
2023-03-03T05:17:36.716Z,37.78
2023-03-03T05:20:05.712Z,37.28
2023-03-03T05:22:32.539Z,38.78
2023-03-03T05:24:59.407Z,40.10
2023-03-03T05:27:26.580Z,38.95
2023-03-03T05:29:53.473Z,32.75
2023-03-03T05:32:20.310Z,39.35
2023-03-03T05:34:47.225Z,36.10
2023-03-03T05:37:15.619Z,39.83
2023-03-03T05:39:44.669Z,28.77
2023-03-03T05:42:14.854Z,34.40
2023-03-03T05:44:41.907Z,38.85
2023-03-03T05:47:09.903Z,32.08
2023-03-03T05:49:36.915Z,30.70
2023-03-03T05:52:04.103Z,27.60
2023-03-03T05:54:31.509Z,20.65
2023-03-03T05:56:58.523Z,29.65
2023-03-03T05:59:25.378Z,22.77
2023-03-03T06:01:52.354Z,25.48
2023-03-03T06:04:19.236Z,29.13
2023-03-03T06:06:46.214Z,29.23
2023-03-03T06:09:13.044Z,28.05
2023-03-03T06:11:39.878Z,26.52
2023-03-03T06:14:06.775Z,33.42
2023-03-03T06:16:43.405Z,28.98
2023-03-03T06:19:11.716Z,29.30
2023-03-03T06:21:38.657Z,28.85
2023-03-03T06:24:05.972Z,30.65
2023-03-03T06:26:33.404Z,33.15
2023-03-03T06:29:00.658Z,34.10
2023-03-03T06:31:28.393Z,36.22
2023-03-03T06:33:55.471Z,17.23
2023-03-03T06:36:23.635Z,21.75
2023-03-03T06:38:50.563Z,21.17
2023-03-03T06:41:17.582Z,18.20
2023-03-03T06:43:44.478Z,36.70
2023-03-03T06:46:11.627Z,29.40
2023-03-03T06:48:39.021Z,31.20
2023-03-03T06:51:30.108Z,28.13
2023-03-03T06:53:58.928Z,24.08
2023-03-03T06:56:26.858Z,17.75
2023-03-03T06:58:59.048Z,16.90
2023-03-03T07:03:55.212Z,15.90
2023-03-03T07:06:28.285Z,18.88
2023-03-03T07:08:57.888Z,15.13
2023-03-03T07:11:25.067Z,13.98
2023-03-03T07:13:54.032Z,14.15
2023-03-03T07:16:25.865Z,15.25
2023-03-03T07:21:26.810Z,16.40
2023-03-03T07:23:54.442Z,22.42
2023-03-03T07:26:32.303Z,13.35
2023-03-03T07:29:14.585Z,16.73
2023-03-03T07:31:44.564Z,14.95
2023-03-03T07:34:38.977Z,14.73
2023-03-03T07:37:36.201Z,15.68
2023-03-03T07:40:24.886Z,31.58
2023-03-03T07:42:51.834Z,15.45
2023-03-03T07:45:32.578Z,14.82
2023-03-03T07:48:23.667Z,14.48
2023-03-03T07:50:51.089Z,17.00
2023-03-03T07:53:30.294Z,13.48
2023-03-03T07:55:57.248Z,11.48
2023-03-03T07:58:31.308Z,11.68
2023-03-03T08:01:41.253Z,18.13
2023-03-03T08:04:29.103Z,14.52
2023-03-03T08:07:00.901Z,11.93
2023-03-03T08:09:38.100Z,13.63
2023-03-03T08:12:23.424Z,11.60
2023-03-03T08:14:52.343Z,13.25
2023-03-03T08:17:29.404Z,11.27
2023-03-03T08:19:56.635Z,13.88
2023-03-03T08:22:34.077Z,9.98
2023-03-03T08:25:01.071Z,17.35
2023-03-03T08:27:28.199Z,14.13
2023-03-03T08:29:55.293Z,9.15
2023-03-03T08:32:23.848Z,9.93
2023-03-03T08:34:53.908Z,11.23
2023-03-03T08:37:21.503Z,12.23
2023-03-03T08:39:48.570Z,10.10
2023-03-03T08:42:16.359Z,9.00
2023-03-03T08:44:43.491Z,8.82
2023-03-03T08:47:10.448Z,13.85
2023-03-03T08:49:37.872Z,11.07
2023-03-03T08:52:04.872Z,7.82
2023-03-03T08:54:32.191Z,10.63
2023-03-03T08:57:00.749Z,11.85
2023-03-03T08:59:28.340Z,9.10
2023-03-03T09:01:55.408Z,15.70
2023-03-03T09:04:23.061Z,10.88
2023-03-03T09:06:50.371Z,11.55
2023-03-03T09:09:17.372Z,14.38
2023-03-03T09:11:44.487Z,11.75
2023-03-03T09:14:13.810Z,13.05
2023-03-03T09:16:46.439Z,8.45
2023-03-03T09:19:36.170Z,17.40
2023-03-03T09:22:25.050Z,15.15
2023-03-03T09:24:58.619Z,14.30
2023-03-03T09:27:30.975Z,18.88
2023-03-03T09:30:02.409Z,20.60
2023-03-03T09:32:35.733Z,15.73
2023-03-03T09:35:37.923Z,12.63
2023-03-03T09:38:27.513Z,9.50
2023-03-03T09:41:24.210Z,15.38
2023-03-03T09:44:31.073Z,11.82
2023-03-03T09:47:30.988Z,12.88
2023-03-03T09:50:14.040Z,9.40
2023-03-03T09:52:50.957Z,15.65
2023-03-03T09:55:47.724Z,11.80
2023-03-03T09:58:32.810Z,11.65
2023-03-03T10:01:22.891Z,12.40
2023-03-03T10:04:19.735Z,10.60
2023-03-03T10:07:11.894Z,11.70
2023-03-03T10:12:31.255Z,17.48
2023-03-03T10:15:20.809Z,17.70
2023-03-03T10:17:53.253Z,14.00
2023-03-03T10:20:51.195Z,8.25
2023-03-03T10:23:40.948Z,10.30
2023-03-03T10:26:44.742Z,10.43
2023-03-03T10:29:30.439Z,11.15
2023-03-03T10:32:28.042Z,9.57
2023-03-03T10:35:15.525Z,11.98
2023-03-03T10:38:14.917Z,7.70
2023-03-03T10:41:21.818Z,8.18
2023-03-03T10:44:28.529Z,10.75
2023-03-03T10:47:15.812Z,7.78
2023-03-03T10:50:22.670Z,9.35
2023-03-03T10:53:03.965Z,8.95
2023-03-03T10:55:50.355Z,8.57
2023-03-03T10:58:38.329Z,9.13
2023-03-03T11:01:27.281Z,8.50
2023-03-03T11:04:21.471Z,8.88
2023-03-03T11:06:57.705Z,8.18
2023-03-03T11:09:40.966Z,8.85
2023-03-03T11:12:33.610Z,7.43
2023-03-03T11:15:29.030Z,5.85
2023-03-03T11:18:26.507Z,6.88
2023-03-03T11:21:14.556Z,8.80
2023-03-03T11:23:53.950Z,7.53
2023-03-03T11:26:33.730Z,7.10
2023-03-03T11:29:33.988Z,12.05
2023-03-03T11:32:27.565Z,5.75
2023-03-03T11:35:20.455Z,6.97
2023-03-03T11:37:58.494Z,7.32
2023-03-03T11:40:28.657Z,4.57
2023-03-03T11:43:35.373Z,6.40
2023-03-03T11:46:13.989Z,3.63
2023-03-03T11:49:04.238Z,3.40
2023-03-03T11:51:59.175Z,5.00
2023-03-03T11:54:33.304Z,4.97
2023-03-03T11:57:25.791Z,3.45
2023-03-03T12:00:20.174Z,3.08
2023-03-03T12:03:17.002Z,4.35
2023-03-03T12:06:23.708Z,3.30
2023-03-03T12:09:30.532Z,2.90
2023-03-03T12:12:08.433Z,3.65
2023-03-03T12:15:15.885Z,4.07
2023-03-03T12:18:11.880Z,5.40
2023-03-03T12:21:18.637Z,4.07
2023-03-03T12:24:25.409Z,7.75
2023-03-03T12:27:09.708Z,3.03
2023-03-03T12:29:51.385Z,4.13
2023-03-03T12:32:52.913Z,2.05
2023-03-03T12:35:36.900Z,3.10
2023-03-03T12:38:43.828Z,3.28
2023-03-03T12:41:42.511Z,2.35
2023-03-03T12:44:18.874Z,4.13
2023-03-03T12:46:55.710Z,2.28
2023-03-03T12:49:28.201Z,3.33
2023-03-03T12:52:29.475Z,6.32
2023-03-03T12:55:19.596Z,6.82
2023-03-03T12:58:15.626Z,5.97
2023-03-03T13:01:22.318Z,2.92
2023-03-03T13:04:29.384Z,4.22
2023-03-03T13:07:18.812Z,5.22
2023-03-03T13:10:25.653Z,2.95
2023-03-03T13:13:01.929Z,3.17
2023-03-03T13:15:33.979Z,4.93
2023-03-03T13:18:24.112Z,4.55
2023-03-03T13:20:56.372Z,4.63
2023-03-03T13:23:47.753Z,5.20
2023-03-03T13:26:45.255Z,4.10
2023-03-03T13:29:21.093Z,2.63
2023-03-03T13:31:50.154Z,5.10
2023-03-03T13:34:39.472Z,5.00
2023-03-03T13:37:30.234Z,3.28
2023-03-03T13:40:21.711Z,1.98
2023-03-03T13:42:59.144Z,1.85
2023-03-03T13:45:48.815Z,4.75
2023-03-03T13:48:44.923Z,2.30
2023-03-03T13:51:42.196Z,3.17
2023-03-03T13:54:37.456Z,4.30
2023-03-03T13:57:40.509Z,2.88
2023-03-03T14:00:22.937Z,4.85
2023-03-03T14:03:29.711Z,2.95
2023-03-03T14:06:04.276Z,2.85
2023-03-03T14:08:44.753Z,3.55
2023-03-03T14:11:30.030Z,3.63
2023-03-03T14:14:13.797Z,5.13
2023-03-03T14:16:53.360Z,5.20
2023-03-03T14:19:30.915Z,6.40
2023-03-03T14:22:23.793Z,14.23
2023-03-03T14:25:02.830Z,5.82
2023-03-03T14:28:09.614Z,8.75
2023-03-03T14:30:43.675Z,3.63
2023-03-03T14:33:21.739Z,4.13
2023-03-03T14:36:03.067Z,5.35
2023-03-03T14:38:39.275Z,9.77
2023-03-03T14:41:21.858Z,8.40
2023-03-03T14:44:28.771Z,6.88
2023-03-03T14:47:17.446Z,9.52
2023-03-03T14:49:44.437Z,6.13
2023-03-03T14:52:22.660Z,7.15
2023-03-03T14:54:52.904Z,7.22
2023-03-03T14:57:24.596Z,6.88
2023-03-03T15:00:11.073Z,7.10
2023-03-03T15:03:06.794Z,8.93
2023-03-03T15:05:33.905Z,5.38
2023-03-03T15:08:15.034Z,8.55
2023-03-03T15:10:44.352Z,7.65
2023-03-03T15:13:31.891Z,5.03
2023-03-03T15:16:09.275Z,6.25
2023-03-03T15:19:11.809Z,5.28
2023-03-03T15:21:42.501Z,8.48
2023-03-03T15:24:24.308Z,11.77
2023-03-03T15:26:57.199Z,6.53
2023-03-03T15:29:37.518Z,21.17
2023-03-03T15:32:31.383Z,12.23
2023-03-03T15:35:23.107Z,8.82
2023-03-03T15:37:57.291Z,10.00
2023-03-03T15:40:30.239Z,12.43
2023-03-03T15:43:12.792Z,9.13
2023-03-03T15:46:12.184Z,10.82
2023-03-03T15:49:00.626Z,10.10
2023-03-03T15:52:03.813Z,10.35
2023-03-03T15:54:53.660Z,10.73
2023-03-03T15:58:00.468Z,9.98
2023-03-03T16:00:41.633Z,11.30
2023-03-03T16:03:20.931Z,8.93
2023-03-03T16:06:28.752Z,7.30
2023-03-03T16:09:26.835Z,7.70
2023-03-03T16:12:17.304Z,13.95
2023-03-03T16:15:15.759Z,14.52
2023-03-03T16:18:22.394Z,11.75
2023-03-03T16:21:18.193Z,14.77
2023-03-03T16:23:50.932Z,17.58
2023-03-03T16:26:44.076Z,20.75
2023-03-03T16:29:34.303Z,15.18
2023-03-03T16:32:13.273Z,11.75
2023-03-03T16:35:01.081Z,13.07
2023-03-03T16:37:34.874Z,15.82
2023-03-03T16:40:23.878Z,11.40
2023-03-03T16:42:59.728Z,11.55
2023-03-03T16:45:34.834Z,10.95
2023-03-03T16:48:22.842Z,13.63
2023-03-03T16:51:11.269Z,13.15
2023-03-03T16:54:07.038Z,6.97
2023-03-03T16:57:01.093Z,12.68
2023-03-03T16:59:53.788Z,17.50
2023-03-03T17:02:44.122Z,18.70
2023-03-03T17:05:51.489Z,23.75
2023-03-03T17:08:58.322Z,24.10
2023-03-03T17:11:41.276Z,17.20
2023-03-03T17:14:42.339Z,20.58
2023-03-03T17:17:35.635Z,12.98
2023-03-03T17:20:42.290Z,19.00
2023-03-03T17:23:27.656Z,18.35
2023-03-03T17:26:05.294Z,16.60
2023-03-03T17:29:01.333Z,20.10
2023-03-03T17:31:38.183Z,23.50
2023-03-03T17:34:31.989Z,12.95
2023-03-03T17:37:25.718Z,11.32
2023-03-03T17:40:34.434Z,16.52
2023-03-03T17:43:13.242Z,9.32
2023-03-03T17:45:43.415Z,21.00
2023-03-03T17:48:31.764Z,13.30
2023-03-03T17:51:21.238Z,17.63
2023-03-03T17:54:13.164Z,17.88
2023-03-03T17:57:13.599Z,17.17
2023-03-03T17:59:54.947Z,18.70
2023-03-03T18:03:01.997Z,22.98
2023-03-03T18:05:56.083Z,27.42
2023-03-03T18:08:48.377Z,24.58
2023-03-03T18:11:39.825Z,20.17
2023-03-03T18:14:21.901Z,14.98
2023-03-03T18:17:17.731Z,11.32
2023-03-03T18:20:20.902Z,18.30
2023-03-03T18:22:52.110Z,15.52
2023-03-03T18:25:26.670Z,16.10
2023-03-03T18:28:24.593Z,23.85
2023-03-03T18:31:01.732Z,15.90
2023-03-03T18:34:11.659Z,12.55
2023-03-03T18:36:58.359Z,28.67
2023-03-03T18:39:51.503Z,20.17
2023-03-03T18:42:48.613Z,16.30
2023-03-03T18:45:52.069Z,23.13
2023-03-03T18:48:22.852Z,27.98
2023-03-03T18:50:52.987Z,8.68
2023-03-03T18:53:31.581Z,16.65
2023-03-03T18:56:02.434Z,16.75
2023-03-03T18:58:39.779Z,16.77
2023-03-03T19:01:36.460Z,14.90
2023-03-03T19:04:17.274Z,12.75
2023-03-03T19:07:09.811Z,17.43
2023-03-03T19:09:52.691Z,13.68
2023-03-03T19:12:19.713Z,9.10
2023-03-03T19:14:49.947Z,10.07
2023-03-03T19:17:43.958Z,11.95
2023-03-03T19:20:17.514Z,12.75
2023-03-03T19:23:05.289Z,8.82
2023-03-03T19:25:34.129Z,13.68
2023-03-03T19:28:34.238Z,15.55
2023-03-03T19:31:15.022Z,16.80
2023-03-03T19:33:52.831Z,15.10
2023-03-03T19:36:52.676Z,10.27
2023-03-03T19:39:53.733Z,10.48
2023-03-03T19:42:47.666Z,14.25
2023-03-03T19:45:38.932Z,10.70
2023-03-03T19:48:35.469Z,15.30
2023-03-03T19:51:22.834Z,8.90
2023-03-03T19:54:07.558Z,12.75
2023-03-03T19:56:42.420Z,11.52
2023-03-03T19:59:49.855Z,9.77
2023-03-03T20:02:39.628Z,8.57
2023-03-03T20:05:20.407Z,10.20
2023-03-03T20:08:27.037Z,8.02
2023-03-03T20:11:01.705Z,9.88
2023-03-03T20:13:59.544Z,9.65
2023-03-03T20:16:48.338Z,6.70
2023-03-03T20:19:28.594Z,7.10
2023-03-03T20:22:11.758Z,7.90
2023-03-03T20:24:57.384Z,4.53
2023-03-03T20:27:36.484Z,6.32
2023-03-03T20:30:31.243Z,8.27
2023-03-03T20:33:29.414Z,5.88
2023-03-03T20:36:16.316Z,6.75
2023-03-03T20:39:13.842Z,3.45
2023-03-03T20:42:20.524Z,9.50
2023-03-03T20:45:19.453Z,6.72
2023-03-03T20:48:13.807Z,6.55
2023-03-03T20:50:58.229Z,7.38
2023-03-03T20:54:04.857Z,6.43
2023-03-03T20:56:44.096Z,9.63
2023-03-03T20:59:32.115Z,10.80
2023-03-03T21:02:21.439Z,9.43
2023-03-03T21:05:19.201Z,6.32
2023-03-03T21:07:55.443Z,5.32
2023-03-03T21:10:25.023Z,8.68
2023-03-03T21:12:53.867Z,5.93
2023-03-03T21:15:35.696Z,4.32
2023-03-03T21:18:20.880Z,5.60
2023-03-03T21:20:47.748Z,3.50
2023-03-03T21:23:14.602Z,7.07
2023-03-03T21:25:54.281Z,5.68
2023-03-03T21:28:30.648Z,3.90
2023-03-03T21:31:13.913Z,6.13
2023-03-03T21:33:55.375Z,5.63
2023-03-03T21:36:46.710Z,4.40
2023-03-03T21:39:33.519Z,7.68
2023-03-03T21:42:12.029Z,9.13
2023-03-03T21:44:48.974Z,5.22
2023-03-03T21:47:18.303Z,8.48
2023-03-03T21:49:47.045Z,6.90
2023-03-03T21:52:16.535Z,10.43
2023-03-03T21:54:44.394Z,5.97
2023-03-03T21:57:11.421Z,11.77
2023-03-03T21:59:38.483Z,10.10
2023-03-03T22:02:06.015Z,6.75
2023-03-03T22:04:34.398Z,8.65
2023-03-03T22:07:01.553Z,8.75
2023-03-03T22:09:28.430Z,6.13
2023-03-03T22:11:55.262Z,9.65
2023-03-03T22:14:22.079Z,11.50
2023-03-03T22:16:49.025Z,6.85
2023-03-03T22:19:15.938Z,11.10
2023-03-03T22:21:42.825Z,20.60
2023-03-03T22:24:09.872Z,9.70
2023-03-03T22:26:36.801Z,9.30
2023-03-03T22:29:04.565Z,4.35
2023-03-03T22:31:31.754Z,7.28
2023-03-03T22:33:58.618Z,13.98
2023-03-03T22:36:25.600Z,11.32
2023-03-03T22:38:52.646Z,7.15
2023-03-03T22:41:19.630Z,8.00
2023-03-03T22:43:47.993Z,7.57
2023-03-03T22:46:15.153Z,11.48
2023-03-03T22:48:42.210Z,14.27
2023-03-03T22:51:09.283Z,16.52
2023-03-03T22:53:36.124Z,13.25
2023-03-03T22:56:03.232Z,16.63
2023-03-03T22:58:30.141Z,9.18
2023-03-03T23:00:57.097Z,11.10
2023-03-03T23:03:24.304Z,15.55
2023-03-03T23:05:52.119Z,17.30
2023-03-03T23:08:20.394Z,14.18
2023-03-03T23:10:47.932Z,14.20
2023-03-03T23:13:14.863Z,15.68
2023-03-03T23:15:41.732Z,10.25
2023-03-03T23:18:08.694Z,14.35
2023-03-03T23:20:35.691Z,12.52
2023-03-03T23:23:02.975Z,15.85
2023-03-03T23:25:30.597Z,15.40
2023-03-03T23:27:57.809Z,9.55
2023-03-03T23:30:24.768Z,9.27
2023-03-03T23:32:51.979Z,10.38
2023-03-03T23:35:19.572Z,14.68
2023-03-03T23:37:46.650Z,17.13
2023-03-03T23:40:15.196Z,16.90
2023-03-03T23:42:42.132Z,10.10
2023-03-03T23:45:10.312Z,19.63
2023-03-03T23:47:37.664Z,14.93
2023-03-03T23:50:05.354Z,10.23
2023-03-03T23:52:32.154Z,17.77
2023-03-03T23:54:59.199Z,13.82
2023-03-03T23:57:26.019Z,6.70
2023-03-03T23:59:52.914Z,13.88
